Time;durP1;ratioP1;P1;durP2;ratioP2;P2;SDS_P1;SDS_P2;PMS_P1;PMS_P2;Temp;Humidity;BMP_temperature;BMP_pressure;BME280_temperature;BME280_humidity;BME280_pressure;Samples;Min_cycle;Max_cycle;Signal;HPM_P1;HPM_P2
2023/05/27 00:01:03;;;;;;;9.30;4.17;;;;;;;;;;5012314;28;20229;-74
2023/05/27 00:03:28;;;;;;;9.93;4.40;;;;;;;;;;5001973;28;20719;-75
2023/05/27 00:05:56;;;;;;;6.60;4.30;;;;;;;;;;4994898;28;20216;-75
2023/05/27 00:08:24;;;;;;;9.13;4.60;;;;;;;;;;5022388;28;20232;-75
2023/05/27 00:10:49;;;;;;;8.33;4.30;;;;;;;;;;5019175;28;20232;-75
2023/05/27 00:13:24;;;;;;;10.80;4.33;;;;;;;;;;4990119;28;20221;-75
2023/05/27 00:15:52;;;;;;;9.07;4.20;;;;;;;;;;4999744;28;20282;-75
2023/05/27 00:18:18;;;;;;;9.10;4.30;;;;;;;;;;4999002;28;20221;-75
2023/05/27 00:20:46;;;;;;;7.97;4.50;;;;;;;;;;5012624;28;20232;-75
2023/05/27 00:23:16;;;;;;;7.40;4.40;;;;;;;;;;4998823;28;20224;-75
2023/05/27 00:25:44;;;;;;;13.70;4.77;;;;;;;;;;5014693;28;20225;-74
2023/05/27 00:28:12;;;;;;;10.80;4.30;;;;;;;;;;5012917;28;20231;-75
2023/05/27 00:30:38;;;;;;;9.77;4.37;;;;;;;;;;5016363;28;20298;-74
2023/05/27 00:33:03;;;;;;;6.70;4.27;;;;;;;;;;5021691;28;20220;-76
2023/05/27 00:35:31;;;;;;;9.73;4.43;;;;;;;;;;5035139;28;20228;-76
2023/05/27 00:37:57;;;;;;;8.30;4.87;;;;;;;;;;5000108;28;20221;-75
2023/05/27 00:40:25;;;;;;;9.07;4.70;;;;;;;;;;5017260;28;20233;-75
2023/05/27 00:42:51;;;;;;;8.97;4.40;;;;;;;;;;5025344;28;20217;-75
2023/05/27 00:45:17;;;;;;;9.70;4.83;;;;;;;;;;5008170;28;20225;-74
2023/05/27 00:47:45;;;;;;;8.00;4.70;;;;;;;;;;4985966;28;20228;-74
2023/05/27 00:50:10;;;;;;;7.27;4.47;;;;;;;;;;5007363;28;20300;-75
2023/05/27 00:52:36;;;;;;;7.43;4.33;;;;;;;;;;5001979;28;20232;-75
2023/05/27 00:55:01;;;;;;;8.53;4.43;;;;;;;;;;5003352;28;20736;-74
2023/05/27 00:57:27;;;;;;;8.37;4.07;;;;;;;;;;5017077;28;20821;-74
2023/05/27 00:59:53;;;;;;;6.73;4.37;;;;;;;;;;5025017;28;20239;-74
2023/05/27 01:02:18;;;;;;;7.67;4.10;;;;;;;;;;5018391;28;20224;-74
2023/05/27 01:04:47;;;;;;;8.70;4.40;;;;;;;;;;5017872;28;20217;-75
2023/05/27 01:07:22;;;;;;;12.50;4.40;;;;;;;;;;5008742;28;20225;-75
2023/05/27 01:10:17;;;;;;;8.93;4.57;;;;;;;;;;5014713;28;20216;-75
2023/05/27 01:12:48;;;;;;;9.07;4.60;;;;;;;;;;4990169;28;20226;-75
2023/05/27 01:15:16;;;;;;;12.27;4.67;;;;;;;;;;5007830;28;20960;-75
2023/05/27 01:17:42;;;;;;;8.00;4.60;;;;;;;;;;4991743;28;20221;-75
2023/05/27 01:20:13;;;;;;;9.87;4.70;;;;;;;;;;5007310;28;20229;-75
2023/05/27 01:22:41;;;;;;;8.97;4.60;;;;;;;;;;5019827;28;20229;-75
2023/05/27 01:25:08;;;;;;;9.63;4.50;;;;;;;;;;5014957;28;20214;-75
2023/05/27 01:27:33;;;;;;;12.30;4.87;;;;;;;;;;5008212;28;20231;-74
2023/05/27 01:30:02;;;;;;;8.90;4.20;;;;;;;;;;4991866;28;20213;-75
2023/05/27 01:32:51;;;;;;;10.27;4.47;;;;;;;;;;5008663;28;20603;-74
2023/05/27 01:35:57;;;;;;;8.33;4.50;;;;;;;;;;5024387;28;20216;-75
2023/05/27 01:38:26;;;;;;;8.30;4.47;;;;;;;;;;5019188;28;20255;-75
2023/05/27 01:40:52;;;;;;;8.73;3.93;;;;;;;;;;4999839;28;20301;-75
2023/05/27 01:43:17;;;;;;;7.90;4.30;;;;;;;;;;4990984;28;20840;-75
2023/05/27 01:45:45;;;;;;;9.97;4.53;;;;;;;;;;5007461;28;20225;-74
2023/05/27 01:48:11;;;;;;;11.47;4.80;;;;;;;;;;4996386;28;20228;-76
2023/05/27 01:50:40;;;;;;;11.30;4.37;;;;;;;;;;5017091;28;20231;-74
2023/05/27 01:53:06;;;;;;;8.13;4.60;;;;;;;;;;5017359;28;20601;-75
2023/05/27 01:55:33;;;;;;;9.40;4.50;;;;;;;;;;5035372;28;20316;-73
2023/05/27 01:57:59;;;;;;;6.63;4.23;;;;;;;;;;5017296;28;20217;-75
2023/05/27 02:00:24;;;;;;;7.67;4.17;;;;;;;;;;4980617;28;20220;-75
2023/05/27 02:02:51;;;;;;;10.23;4.57;;;;;;;;;;4996031;28;20221;-74
2023/05/27 02:05:19;;;;;;;7.23;4.60;;;;;;;;;;4978956;28;20713;-74
2023/05/27 02:07:48;;;;;;;9.87;3.97;;;;;;;;;;4982579;28;20224;-74
2023/05/27 02:10:13;;;;;;;8.27;4.10;;;;;;;;;;5021430;28;20240;-75
2023/05/27 02:12:41;;;;;;;9.73;4.40;;;;;;;;;;5017569;28;20220;-75
2023/05/27 02:15:08;;;;;;;6.23;3.87;;;;;;;;;;5016111;28;20220;-74
2023/05/27 02:17:33;;;;;;;9.20;4.47;;;;;;;;;;4996795;28;20217;-75
2023/05/27 02:20:03;;;;;;;7.33;4.40;;;;;;;;;;5016364;28;20226;-74
2023/05/27 02:22:36;;;;;;;6.90;4.50;;;;;;;;;;5001731;28;20228;-74
2023/05/27 02:25:03;;;;;;;10.80;4.80;;;;;;;;;;4983265;28;20300;-74
2023/05/27 02:27:28;;;;;;;6.43;4.33;;;;;;;;;;5016438;28;20578;-74
2023/05/27 02:29:54;;;;;;;6.17;4.07;;;;;;;;;;4997986;28;20220;-74
2023/05/27 02:32:22;;;;;;;6.60;4.03;;;;;;;;;;5003920;28;20243;-75
2023/05/27 02:34:50;;;;;;;8.20;3.97;;;;;;;;;;5010956;28;20205;-74
2023/05/27 02:37:16;;;;;;;8.70;4.50;;;;;;;;;;5002129;28;20237;-75
2023/05/27 02:39:43;;;;;;;6.80;4.20;;;;;;;;;;5004733;28;20259;-74
2023/05/27 02:42:12;;;;;;;6.80;4.30;;;;;;;;;;4990788;28;20221;-75
2023/05/27 02:44:39;;;;;;;6.87;4.17;;;;;;;;;;4990294;28;20210;-74
2023/05/27 02:47:06;;;;;;;7.53;4.20;;;;;;;;;;4984389;28;20224;-75
2023/05/27 02:49:38;;;;;;;8.20;3.90;;;;;;;;;;4999194;28;20217;-74
2023/05/27 02:52:03;;;;;;;7.27;4.13;;;;;;;;;;5010146;28;20320;-75
2023/05/27 02:54:33;;;;;;;5.90;4.00;;;;;;;;;;4989705;28;20780;-74
2023/05/27 02:57:01;;;;;;;10.90;4.57;;;;;;;;;;4998887;28;20225;-75
2023/05/27 02:59:27;;;;;;;7.77;4.00;;;;;;;;;;4965142;28;20213;-75
2023/05/27 03:01:57;;;;;;;9.27;4.27;;;;;;;;;;5014406;28;20245;-74
2023/05/27 03:04:23;;;;;;;10.37;4.10;;;;;;;;;;4996245;28;20264;-75
2023/05/27 03:06:48;;;;;;;5.70;3.73;;;;;;;;;;5005278;28;20248;-75
2023/05/27 03:09:14;;;;;;;7.17;4.50;;;;;;;;;;5030313;28;20233;-75
2023/05/27 03:11:42;;;;;;;10.33;4.23;;;;;;;;;;5027304;28;20228;-75
2023/05/27 03:14:14;;;;;;;8.50;4.07;;;;;;;;;;5013848;28;20217;-75
2023/05/27 03:16:40;;;;;;;6.27;3.80;;;;;;;;;;5024028;28;20219;-75
2023/05/27 03:19:06;;;;;;;7.07;4.00;;;;;;;;;;5015029;28;20216;-75
2023/05/27 03:21:33;;;;;;;7.10;4.20;;;;;;;;;;4983444;28;20228;-74
2023/05/27 03:24:02;;;;;;;9.03;4.53;;;;;;;;;;4996875;28;20234;-75
2023/05/27 03:26:32;;;;;;;5.93;3.97;;;;;;;;;;5001276;28;20213;-74
2023/05/27 03:29:05;;;;;;;7.93;3.93;;;;;;;;;;5033781;28;20221;-75
2023/05/27 03:31:33;;;;;;;6.87;4.30;;;;;;;;;;5002319;28;20241;-75
2023/05/27 03:34:04;;;;;;;7.20;3.80;;;;;;;;;;4973365;28;20221;-75
2023/05/27 03:36:29;;;;;;;7.67;4.07;;;;;;;;;;5006317;28;20602;-75
2023/05/27 03:38:58;;;;;;;7.27;4.00;;;;;;;;;;5029439;28;20278;-75
2023/05/27 03:41:31;;;;;;;5.67;3.50;;;;;;;;;;5006021;28;20315;-74
2023/05/27 03:43:59;;;;;;;9.87;4.23;;;;;;;;;;5012898;28;20586;-74
2023/05/27 03:46:31;;;;;;;7.37;4.27;;;;;;;;;;4995179;28;20274;-74
2023/05/27 03:48:57;;;;;;;7.17;4.03;;;;;;;;;;4999315;28;20212;-75
2023/05/27 03:51:27;;;;;;;9.23;3.90;;;;;;;;;;4997850;28;20239;-74
2023/05/27 03:53:53;;;;;;;6.80;4.00;;;;;;;;;;5016256;28;20225;-75
2023/05/27 03:56:18;;;;;;;8.57;4.47;;;;;;;;;;5022328;28;20270;-75
2023/05/27 03:58:44;;;;;;;5.57;3.90;;;;;;;;;;5002268;28;20232;-75
2023/05/27 04:01:11;;;;;;;8.37;4.13;;;;;;;;;;5014903;28;20220;-74
2023/05/27 04:03:37;;;;;;;8.63;4.30;;;;;;;;;;5029435;28;20227;-75
2023/05/27 04:06:03;;;;;;;8.10;4.30;;;;;;;;;;5001593;28;20224;-75
2023/05/27 04:08:28;;;;;;;6.07;3.73;;;;;;;;;;4968562;28;20606;-74
2023/05/27 04:10:57;;;;;;;6.57;4.03;;;;;;;;;;5001843;28;20780;-74
2023/05/27 04:13:24;;;;;;;4.63;3.87;;;;;;;;;;4984959;28;20243;-74
2023/05/27 04:15:53;;;;;;;7.50;3.60;;;;;;;;;;5005432;28;20684;-74
2023/05/27 04:18:23;;;;;;;6.37;4.10;;;;;;;;;;5013028;28;20281;-74
2023/05/27 04:20:50;;;;;;;6.97;4.20;;;;;;;;;;5025367;28;20337;-74
2023/05/27 04:23:16;;;;;;;7.53;4.37;;;;;;;;;;5021956;28;20241;-74
2023/05/27 04:25:42;;;;;;;5.47;4.10;;;;;;;;;;5035377;28;20224;-74
2023/05/27 04:28:10;;;;;;;5.40;3.87;;;;;;;;;;5021035;28;20232;-74
2023/05/27 04:30:40;;;;;;;5.80;3.93;;;;;;;;;;5021122;28;20308;-74
2023/05/27 04:33:15;;;;;;;7.37;3.93;;;;;;;;;;5026374;28;20703;-74
2023/05/27 04:35:47;;;;;;;6.67;3.63;;;;;;;;;;4992508;28;20709;-74
2023/05/27 04:38:16;;;;;;;7.07;4.07;;;;;;;;;;5019425;28;20225;-74
2023/05/27 04:40:55;;;;;;;5.57;3.87;;;;;;;;;;5013168;28;20762;-74
2023/05/27 04:43:43;;;;;;;6.60;3.90;;;;;;;;;;5011734;28;20235;-74
2023/05/27 04:46:14;;;;;;;9.53;4.10;;;;;;;;;;5000910;28;20328;-74
2023/05/27 04:48:44;;;;;;;5.17;3.63;;;;;;;;;;5017932;28;20274;-74
2023/05/27 04:51:10;;;;;;;5.57;3.80;;;;;;;;;;5024396;28;20290;-75
2023/05/27 04:53:35;;;;;;;6.07;4.03;;;;;;;;;;5012244;28;20659;-74
2023/05/27 04:56:08;;;;;;;7.57;4.17;;;;;;;;;;4997658;28;20223;-74
2023/05/27 04:58:39;;;;;;;10.00;3.90;;;;;;;;;;5017875;28;20217;-74
2023/05/27 05:01:05;;;;;;;5.17;3.70;;;;;;;;;;5014583;28;20249;-73
2023/05/27 05:03:36;;;;;;;6.80;4.07;;;;;;;;;;5002253;28;20695;-74
2023/05/27 05:06:06;;;;;;;6.53;3.77;;;;;;;;;;5017545;28;20223;-75
2023/05/27 05:08:34;;;;;;;5.93;3.97;;;;;;;;;;5003203;28;20243;-74
2023/05/27 05:11:00;;;;;;;6.80;4.20;;;;;;;;;;5015470;28;20213;-74
2023/05/27 05:13:28;;;;;;;5.47;3.80;;;;;;;;;;5034588;28;20225;-73
2023/05/27 05:15:55;;;;;;;8.17;3.80;;;;;;;;;;5015204;28;20722;-74
2023/05/27 05:18:23;;;;;;;5.70;4.30;;;;;;;;;;5008069;28;20609;-74
2023/05/27 05:20:48;;;;;;;6.60;4.30;;;;;;;;;;4992697;28;20576;-74
2023/05/27 05:23:21;;;;;;;8.47;4.33;;;;;;;;;;5020821;28;20243;-74
2023/05/27 05:25:54;;;;;;;8.60;4.57;;;;;;;;;;5001940;28;20208;-74
2023/05/27 05:28:20;;;;;;;6.20;4.10;;;;;;;;;;5017517;28;20229;-75
2023/05/27 05:30:48;;;;;;;6.23;3.83;;;;;;;;;;5019561;28;20221;-74
2023/05/27 05:33:16;;;;;;;6.73;4.60;;;;;;;;;;4975197;28;20244;-73
2023/05/27 05:35:41;;;;;;;5.53;3.97;;;;;;;;;;5000722;28;20220;-73
2023/05/27 05:38:27;;;;;;;9.30;4.10;;;;;;;;;;5010257;28;21103;-74
2023/05/27 05:40:54;;;;;;;9.47;4.60;;;;;;;;;;4980006;28;20232;-74
2023/05/27 05:43:22;;;;;;;7.93;4.27;;;;;;;;;;4999795;28;20228;-75
2023/05/27 05:45:53;;;;;;;9.83;4.37;;;;;;;;;;5006349;28;20213;-75
2023/05/27 05:48:21;;;;;;;6.50;4.27;;;;;;;;;;5001480;28;20256;-75
2023/05/27 05:50:52;;;;;;;7.97;4.30;;;;;;;;;;5019886;28;20213;-74
2023/05/27 05:53:18;;;;;;;5.57;3.93;;;;;;;;;;4991500;28;20217;-74
2023/05/27 05:55:44;;;;;;;5.70;4.00;;;;;;;;;;5001350;28;20210;-74
2023/05/27 05:58:13;;;;;;;7.17;4.33;;;;;;;;;;5013956;28;20242;-74
2023/05/27 06:00:39;;;;;;;7.80;4.30;;;;;;;;;;4989452;28;20229;-74
2023/05/27 06:03:27;;;;;;;7.70;4.50;;;;;;;;;;4997850;28;20267;-74
2023/05/27 06:05:58;;;;;;;8.50;4.30;;;;;;;;;;4992697;28;20220;-74
2023/05/27 06:08:24;;;;;;;8.17;4.20;;;;;;;;;;5013332;28;20244;-75
2023/05/27 06:11:10;;;;;;;5.87;3.77;;;;;;;;;;5018691;28;20216;-74
2023/05/27 06:13:38;;;;;;;5.70;4.00;;;;;;;;;;5007925;28;20216;-74
2023/05/27 06:16:07;;;;;;;10.20;3.80;;;;;;;;;;5009790;28;20703;-75
2023/05/27 06:18:32;;;;;;;7.50;4.00;;;;;;;;;;4978225;28;20212;-75
2023/05/27 06:20:58;;;;;;;9.93;4.50;;;;;;;;;;5019870;28;20240;-75
2023/05/27 06:23:25;;;;;;;7.00;3.97;;;;;;;;;;5004290;28;20614;-73
2023/05/27 06:26:28;;;;;;;6.30;3.90;;;;;;;;;;4987786;28;20221;-75
2023/05/27 06:29:01;;;;;;;7.83;3.70;;;;;;;;;;4986271;28;20214;-75
2023/05/27 06:31:33;;;;;;;6.83;4.10;;;;;;;;;;4982549;28;20225;-74
2023/05/27 06:33:58;;;;;;;9.45;4.15;;;;;;;;;;4964807;28;20301;-75
2023/05/27 06:36:24;;;;;;;10.70;4.15;;;;;;;;;;4992845;28;20220;-75
2023/05/27 06:38:53;;;;;;;8.02;3.83;;;;;;;;;;4987533;28;20722;-75
2023/05/27 06:41:18;;;;;;;7.05;3.67;;;;;;;;;;5001539;28;20643;-74
2023/05/27 06:43:57;;;;;;;6.00;3.67;;;;;;;;;;4973083;28;20740;-75
2023/05/27 06:46:43;;;;;;;6.63;3.60;;;;;;;;;;4989537;28;20280;-74
2023/05/27 06:49:15;;;;;;;6.65;3.60;;;;;;;;;;4971201;28;20221;-75
2023/05/27 06:51:43;;;;;;;9.65;4.00;;;;;;;;;;4981411;28;20232;-75
2023/05/27 06:54:09;;;;;;;11.05;4.38;;;;;;;;;;4995760;28;20217;-75
2023/05/27 06:56:43;;;;;;;7.80;4.10;;;;;;;;;;4991867;28;20217;-75
2023/05/27 06:59:27;;;;;;;6.70;3.78;;;;;;;;;;5011324;28;20352;-75
2023/05/27 07:01:53;;;;;;;6.25;3.28;;;;;;;;;;5028281;28;20225;-75
2023/05/27 07:04:19;;;;;;;8.75;3.30;;;;;;;;;;5003545;28;20225;-75
2023/05/27 07:06:53;;;;;;;6.20;3.22;;;;;;;;;;5003113;28;20221;-76
2023/05/27 07:09:22;;;;;;;8.05;3.35;;;;;;;;;;4987884;28;20221;-75
2023/05/27 07:11:51;;;;;;;7.38;3.60;;;;;;;;;;5021679;28;20217;-74
2023/05/27 07:14:34;;;;;;;10.73;4.22;;;;;;;;;;5013277;28;20709;-74
2023/05/27 07:17:01;;;;;;;8.25;3.88;;;;;;;;;;4989702;28;20220;-75
2023/05/27 07:19:29;;;;;;;5.95;3.63;;;;;;;;;;4999128;28;20212;-74
2023/05/27 07:22:00;;;;;;;7.53;3.30;;;;;;;;;;4985142;28;20229;-74
2023/05/27 07:24:26;;;;;;;10.63;3.63;;;;;;;;;;5009513;28;20249;-74
2023/05/27 07:26:54;;;;;;;8.43;3.55;;;;;;;;;;5001834;28;20678;-75
2023/05/27 07:29:22;;;;;;;7.07;3.47;;;;;;;;;;5018015;28;20229;-75
2023/05/27 07:31:54;;;;;;;5.40;3.28;;;;;;;;;;4994781;28;20217;-75
2023/05/27 07:34:24;;;;;;;6.30;3.38;;;;;;;;;;5013260;28;20732;-74
2023/05/27 07:36:52;;;;;;;8.32;3.72;;;;;;;;;;5025842;28;20780;-74
2023/05/27 07:39:22;;;;;;;7.38;3.42;;;;;;;;;;5013951;28;20213;-74
2023/05/27 07:41:48;;;;;;;8.18;3.83;;;;;;;;;;5016484;28;20221;-74
2023/05/27 07:44:14;;;;;;;6.47;3.70;;;;;;;;;;4989083;28;20231;-75
2023/05/27 07:46:40;;;;;;;6.97;3.90;;;;;;;;;;5015537;28;20590;-75
2023/05/27 07:49:08;;;;;;;7.80;3.92;;;;;;;;;;5031668;28;20714;-76
2023/05/27 07:51:41;;;;;;;8.13;4.15;;;;;;;;;;5034886;23;20219;-79
2023/05/27 07:54:22;;;;;;;6.88;3.47;;;;;;;;;;5023996;28;20251;-80
2023/05/27 07:56:51;;;;;;;9.05;3.85;;;;;;;;;;5004995;28;20796;-79
2023/05/27 07:59:18;;;;;;;7.28;3.35;;;;;;;;;;4988026;28;20295;-79
2023/05/27 08:01:44;;;;;;;7.45;3.53;;;;;;;;;;5024158;28;20216;-79
2023/05/27 08:04:13;;;;;;;6.10;3.50;;;;;;;;;;5004467;28;20220;-78
2023/05/27 08:06:57;;;;;;;8.90;3.35;;;;;;;;;;4999582;28;20227;-80
2023/05/27 08:09:48;;;;;;;8.20;3.55;;;;;;;;;;4994876;28;20216;-80
2023/05/27 08:12:36;;;;;;;7.60;3.65;;;;;;;;;;5005590;28;20381;-80
2023/05/27 08:15:25;;;;;;;6.07;3.08;;;;;;;;;;5006645;28;20333;-79
2023/05/27 08:18:23;;;;;;;6.15;3.38;;;;;;;;;;5006718;28;20225;-80
2023/05/27 08:21:01;;;;;;;6.75;3.30;;;;;;;;;;5015634;28;20307;-79
2023/05/27 08:23:51;;;;;;;6.13;3.38;;;;;;;;;;4994133;28;20299;-77
2023/05/27 08:26:38;;;;;;;5.13;3.28;;;;;;;;;;5005247;28;20234;-79
2023/05/27 08:29:38;;;;;;;4.65;2.92;;;;;;;;;;5009743;28;20716;-78
2023/05/27 08:32:22;;;;;;;7.05;3.38;;;;;;;;;;5015966;28;21041;-80
2023/05/27 08:38:37;;;;;;;10.38;3.53;;;;;;;;;;5013447;28;20232;-79
2023/05/27 08:41:16;;;;;;;8.63;3.03;;;;;;;;;;4977336;28;20241;-80
2023/05/27 08:43:45;;;;;;;6.22;3.40;;;;;;;;;;4980462;28;20297;-79
2023/05/27 08:46:16;;;;;;;6.80;3.17;;;;;;;;;;4996124;28;20718;-79
2023/05/27 08:48:45;;;;;;;6.30;3.38;;;;;;;;;;4985080;28;20244;-80
2023/05/27 08:51:12;;;;;;;5.82;3.03;;;;;;;;;;4984462;28;20236;-79
2023/05/27 08:53:46;;;;;;;5.35;3.13;;;;;;;;;;4992939;28;20221;-80
2023/05/27 08:56:21;;;;;;;4.63;2.90;;;;;;;;;;4974350;28;20626;-79
2023/05/27 08:58:47;;;;;;;6.40;3.22;;;;;;;;;;4979007;28;20232;-79
2023/05/27 09:01:16;;;;;;;7.05;3.42;;;;;;;;;;4972641;28;20289;-79
2023/05/27 09:03:41;;;;;;;6.72;2.97;;;;;;;;;;4977966;28;20225;-80
2023/05/27 09:06:10;;;;;;;5.38;2.78;;;;;;;;;;4980886;28;20831;-79
2023/05/27 09:08:38;;;;;;;7.63;3.33;;;;;;;;;;4993747;28;20212;-78
2023/05/27 09:11:07;;;;;;;5.30;3.20;;;;;;;;;;4980838;28;20220;-79
2023/05/27 09:13:33;;;;;;;5.35;2.90;;;;;;;;;;4995109;28;20209;-80
2023/05/27 09:16:05;;;;;;;7.22;3.47;;;;;;;;;;4972599;28;20697;-80
2023/05/27 09:18:35;;;;;;;5.90;3.10;;;;;;;;;;5014979;28;20228;-79
2023/05/27 09:21:01;;;;;;;5.50;3.30;;;;;;;;;;5016735;28;20297;-80
2023/05/27 09:23:26;;;;;;;6.32;2.92;;;;;;;;;;4991028;28;20637;-79
2023/05/27 09:26:10;;;;;;;7.45;2.90;;;;;;;;;;5002274;28;20223;-80
2023/05/27 09:28:37;;;;;;;5.70;3.03;;;;;;;;;;5007857;28;20232;-81
2023/05/27 09:31:04;;;;;;;6.32;2.90;;;;;;;;;;4982060;28;20402;-80
2023/05/27 09:33:34;;;;;;;4.25;2.97;;;;;;;;;;4986939;28;20228;-80
2023/05/27 09:36:01;;;;;;;8.10;3.50;;;;;;;;;;4984621;28;20229;-81
2023/05/27 09:38:32;;;;;;;5.93;2.90;;;;;;;;;;4999841;28;20223;-81
2023/05/27 09:41:01;;;;;;;8.05;3.15;;;;;;;;;;4967217;28;20240;-80
2023/05/27 09:43:29;;;;;;;7.15;3.58;;;;;;;;;;4979530;28;20225;-80
2023/05/27 09:46:10;;;;;;;7.32;3.15;;;;;;;;;;4972597;28;20229;-81
2023/05/27 09:48:36;;;;;;;7.70;3.20;;;;;;;;;;5014096;28;20244;-80
2023/05/27 09:51:02;;;;;;;4.95;2.75;;;;;;;;;;5025139;28;20283;-82
2023/05/27 09:53:30;;;;;;;6.35;3.08;;;;;;;;;;4999673;28;20251;-81
2023/05/27 09:55:56;;;;;;;6.22;2.83;;;;;;;;;;5003809;28;20221;-81
2023/05/27 09:58:22;;;;;;;6.95;3.15;;;;;;;;;;5008521;28;20225;-79
2023/05/27 10:00:53;;;;;;;6.03;3.10;;;;;;;;;;4982470;28;20261;-80
2023/05/27 10:03:28;;;;;;;4.60;2.75;;;;;;;;;;4993748;28;20716;-78
2023/05/27 10:05:54;;;;;;;7.60;2.53;;;;;;;;;;4983971;28;20220;-80
2023/05/27 10:08:20;;;;;;;4.53;2.30;;;;;;;;;;4981663;28;20588;-78
2023/05/27 10:10:46;;;;;;;6.38;3.05;;;;;;;;;;4962713;28;20220;-79
2023/05/27 10:13:15;;;;;;;7.55;3.05;;;;;;;;;;4996148;28;20221;-79
2023/05/27 10:15:47;;;;;;;6.38;3.15;;;;;;;;;;4980285;28;20228;-79
2023/05/27 10:18:21;;;;;;;5.80;2.70;;;;;;;;;;4976519;28;20213;-80
2023/05/27 10:20:49;;;;;;;5.65;2.88;;;;;;;;;;4991755;28;20226;-78
2023/05/27 10:25:48;;;;;;;4.90;2.45;;;;;;;;;;4988027;28;21944;-75
2023/05/27 10:28:31;;;;;;;4.45;2.45;;;;;;;;;;4965801;28;20317;-75
2023/05/27 10:31:12;;;;;;;4.05;2.45;;;;;;;;;;4947980;28;20587;-74
2023/05/27 10:33:46;;;;;;;5.47;2.70;;;;;;;;;;4945195;28;20219;-74
2023/05/27 10:36:15;;;;;;;4.60;2.90;;;;;;;;;;4961653;28;20226;-75
2023/05/27 10:38:42;;;;;;;5.13;2.75;;;;;;;;;;4945953;28;20268;-74
2023/05/27 10:41:12;;;;;;;4.82;2.60;;;;;;;;;;4950349;28;20238;-75
2023/05/27 10:43:40;;;;;;;5.60;2.67;;;;;;;;;;4946582;28;20219;-75
2023/05/27 10:46:09;;;;;;;4.22;2.60;;;;;;;;;;4943360;28;20695;-75
2023/05/27 10:48:39;;;;;;;6.97;3.13;;;;;;;;;;4935160;28;20242;-75
2023/05/27 10:51:10;;;;;;;4.78;3.17;;;;;;;;;;4945278;28;20328;-74
2023/05/27 10:53:36;;;;;;;7.35;2.85;;;;;;;;;;4975957;28;20749;-75
2023/05/27 10:56:04;;;;;;;6.40;3.10;;;;;;;;;;4934763;28;20266;-75
2023/05/27 10:58:29;;;;;;;6.57;3.08;;;;;;;;;;4944095;28;20233;-75
2023/05/27 11:00:56;;;;;;;4.43;2.70;;;;;;;;;;4934929;28;20273;-75
2023/05/27 11:03:30;;;;;;;5.20;2.80;;;;;;;;;;4928488;28;20714;-75
2023/05/27 11:06:05;;;;;;;7.47;3.22;;;;;;;;;;4960879;28;20657;-75
2023/05/27 11:08:31;;;;;;;6.75;3.00;;;;;;;;;;4976506;28;20229;-75
2023/05/27 11:11:10;;;;;;;5.60;3.08;;;;;;;;;;4950080;28;20596;-76
2023/05/27 11:13:39;;;;;;;5.28;2.85;;;;;;;;;;4944626;28;20695;-75
2023/05/27 11:16:05;;;;;;;4.28;3.00;;;;;;;;;;4986222;28;20306;-75
2023/05/27 11:18:45;;;;;;;6.78;2.97;;;;;;;;;;4945381;28;20234;-75
2023/05/27 11:21:11;;;;;;;5.05;2.83;;;;;;;;;;4943549;28;20594;-74
2023/05/27 11:23:44;;;;;;;5.65;2.60;;;;;;;;;;4947946;28;20222;-74
2023/05/27 11:26:19;;;;;;;4.70;2.88;;;;;;;;;;4957952;28;20217;-75
2023/05/27 11:28:53;;;;;;;4.95;2.90;;;;;;;;;;4960344;28;20232;-74
2023/05/27 11:31:27;;;;;;;5.13;2.80;;;;;;;;;;4935716;28;20233;-75
2023/05/27 11:33:55;;;;;;;4.43;2.65;;;;;;;;;;4951212;28;20278;-75
2023/05/27 11:36:21;;;;;;;5.20;2.67;;;;;;;;;;4933611;28;20245;-76
2023/05/27 11:38:47;;;;;;;4.60;2.58;;;;;;;;;;4961698;28;20233;-74
2023/05/27 11:41:14;;;;;;;6.30;2.70;;;;;;;;;;4959448;28;20226;-74
2023/05/27 11:43:49;;;;;;;4.28;2.60;;;;;;;;;;4977039;28;20313;-76
2023/05/27 11:46:19;;;;;;;2.85;2.13;;;;;;;;;;4945126;28;20219;-75
2023/05/27 11:48:45;;;;;;;4.50;2.40;;;;;;;;;;4933702;28;20652;-74
2023/05/27 11:51:13;;;;;;;3.92;2.28;;;;;;;;;;4941771;28;20222;-74
2023/05/27 11:53:50;;;;;;;4.47;2.45;;;;;;;;;;4945188;28;20277;-74
2023/05/27 11:56:15;;;;;;;4.00;2.53;;;;;;;;;;4959177;28;20225;-74
2023/05/27 11:58:46;;;;;;;4.50;2.58;;;;;;;;;;4974751;28;20225;-75
2023/05/27 12:01:16;;;;;;;6.07;2.80;;;;;;;;;;4959061;28;20595;-74
2023/05/27 12:03:45;;;;;;;5.05;2.40;;;;;;;;;;4978504;28;20219;-74
2023/05/27 12:06:11;;;;;;;8.15;3.03;;;;;;;;;;4959926;28;20207;-74
2023/05/27 12:08:36;;;;;;;3.17;2.30;;;;;;;;;;4940885;28;20236;-74
2023/05/27 12:11:02;;;;;;;5.07;2.42;;;;;;;;;;4956394;28;20214;-75
2023/05/27 12:13:32;;;;;;;4.70;2.50;;;;;;;;;;4960828;28;20254;-73
2023/05/27 12:16:00;;;;;;;4.85;2.45;;;;;;;;;;4950101;28;20223;-73
2023/05/27 12:18:26;;;;;;;4.68;2.70;;;;;;;;;;4958427;28;20227;-74
2023/05/27 12:20:51;;;;;;;3.95;2.47;;;;;;;;;;4949268;28;20244;-74
2023/05/27 12:23:22;;;;;;;4.75;2.50;;;;;;;;;;4943046;28;20305;-75
2023/05/27 12:25:48;;;;;;;5.43;2.67;;;;;;;;;;4960659;28;20226;-75
2023/05/27 12:28:15;;;;;;;5.72;2.45;;;;;;;;;;4956670;28;20226;-75
2023/05/27 12:30:41;;;;;;;4.90;2.63;;;;;;;;;;4935440;28;20233;-75
2023/05/27 12:33:06;;;;;;;3.30;2.35;;;;;;;;;;4933302;28;20223;-75
2023/05/27 12:35:33;;;;;;;4.93;2.38;;;;;;;;;;4951965;28;20716;-75
2023/05/27 12:37:59;;;;;;;5.82;2.67;;;;;;;;;;4938433;28;20277;-74
2023/05/27 12:40:25;;;;;;;5.60;2.95;;;;;;;;;;4995281;28;20231;-75
2023/05/27 12:42:50;;;;;;;7.18;2.72;;;;;;;;;;4961544;28;20211;-75
2023/05/27 12:45:23;;;;;;;4.80;2.78;;;;;;;;;;4954694;28;20356;-75
2023/05/27 12:47:49;;;;;;;5.10;2.63;;;;;;;;;;4946589;28;20222;-74
2023/05/27 12:50:14;;;;;;;3.35;2.55;;;;;;;;;;4948840;28;20216;-74
2023/05/27 12:52:46;;;;;;;4.47;2.22;;;;;;;;;;4953570;28;20229;-75
2023/05/27 12:55:21;;;;;;;3.50;2.47;;;;;;;;;;4953999;28;20644;-75
2023/05/27 12:57:50;;;;;;;4.93;2.75;;;;;;;;;;4952591;28;20232;-75
2023/05/27 13:00:17;;;;;;;4.82;2.30;;;;;;;;;;4939108;28;20678;-74
2023/05/27 13:02:46;;;;;;;3.63;2.30;;;;;;;;;;4961225;28;20234;-75
2023/05/27 13:05:18;;;;;;;4.57;2.60;;;;;;;;;;4945842;28;20225;-74
2023/05/27 13:07:55;;;;;;;4.03;2.40;;;;;;;;;;4953485;28;20337;-74
2023/05/27 13:10:23;;;;;;;3.30;2.45;;;;;;;;;;4963321;28;20265;-74
2023/05/27 13:12:49;;;;;;;3.92;2.35;;;;;;;;;;4935238;28;20218;-74
2023/05/27 13:15:21;;;;;;;3.45;2.38;;;;;;;;;;4947809;28;20222;-75
2023/05/27 13:18:20;;;;;;;3.20;2.33;;;;;;;;;;4964351;28;20227;-74
2023/05/27 13:21:43;;;;;;;3.78;2.53;;;;;;;;;;4972837;28;20231;-74
2023/05/27 13:24:23;;;;;;;3.83;2.53;;;;;;;;;;4960967;28;20233;-76
2023/05/27 13:26:51;;;;;;;4.70;2.47;;;;;;;;;;4969004;28;20227;-75
2023/05/27 13:29:19;;;;;;;20.42;16.65;;;;;;;;;;4978501;28;20238;-75
2023/05/27 13:31:45;;;;;;;6.45;4.20;;;;;;;;;;4945436;28;20357;-75
2023/05/27 13:34:11;;;;;;;4.85;3.03;;;;;;;;;;4951591;28;20222;-76
2023/05/27 13:36:41;;;;;;;4.05;2.72;;;;;;;;;;4936966;28;21084;-76
2023/05/27 13:39:07;;;;;;;3.95;2.15;;;;;;;;;;4964198;28;20591;-73
2023/05/27 13:41:35;;;;;;;4.38;2.80;;;;;;;;;;4952298;28;20239;-73
2023/05/27 13:44:03;;;;;;;3.65;2.42;;;;;;;;;;4962495;28;20226;-73
2023/05/27 13:46:29;;;;;;;10.32;8.40;;;;;;;;;;4960645;28;20290;-73
2023/05/27 13:48:57;;;;;;;21.48;15.23;;;;;;;;;;4945672;28;20234;-73
2023/05/27 13:51:25;;;;;;;19.83;15.05;;;;;;;;;;4946165;28;20226;-74
2023/05/27 13:53:53;;;;;;;3.28;2.40;;;;;;;;;;4945902;28;20727;-73
2023/05/27 13:56:23;;;;;;;3.20;2.30;;;;;;;;;;4949535;28;20305;-75
2023/05/27 13:58:52;;;;;;;6.82;4.00;;;;;;;;;;4945923;28;20265;-75
2023/05/27 14:01:20;;;;;;;3.30;2.50;;;;;;;;;;4952102;28;20376;-74
2023/05/27 14:03:46;;;;;;;31.95;18.42;;;;;;;;;;4963625;28;20237;-74
2023/05/27 14:06:12;;;;;;;119.90;96.85;;;;;;;;;;4959200;28;20754;-74
2023/05/27 14:08:38;;;;;;;29.08;21.63;;;;;;;;;;4944519;28;20768;-75
2023/05/27 14:11:04;;;;;;;4.22;2.55;;;;;;;;;;4951624;28;20218;-76
2023/05/27 14:13:34;;;;;;;5.90;2.78;;;;;;;;;;4959262;28;20222;-74
2023/05/27 14:16:02;;;;;;;5.15;2.35;;;;;;;;;;4951934;28;20234;-74
2023/05/27 14:18:27;;;;;;;3.45;2.38;;;;;;;;;;4937049;28;20996;-75
2023/05/27 14:20:55;;;;;;;4.85;2.55;;;;;;;;;;4944510;28;20227;-75
2023/05/27 14:23:23;;;;;;;5.43;2.90;;;;;;;;;;4942811;28;20226;-74
2023/05/27 14:25:51;;;;;;;4.30;2.63;;;;;;;;;;4963176;28;20218;-75
2023/05/27 14:28:17;;;;;;;15.07;10.88;;;;;;;;;;4956993;28;20312;-75
2023/05/27 14:30:45;;;;;;;17.40;12.35;;;;;;;;;;4950592;28;20222;-74
2023/05/27 14:33:10;;;;;;;5.82;3.97;;;;;;;;;;4974286;28;20278;-74
2023/05/27 14:35:38;;;;;;;6.47;3.17;;;;;;;;;;4961675;28;20245;-74
2023/05/27 14:38:06;;;;;;;3.70;2.60;;;;;;;;;;4945416;28;20229;-75
2023/05/27 14:40:32;;;;;;;3.47;2.60;;;;;;;;;;4967671;28;20241;-74
2023/05/27 14:43:00;;;;;;;43.63;38.88;;;;;;;;;;4935496;28;20218;-74
2023/05/27 14:45:29;;;;;;;3.33;2.67;;;;;;;;;;4956334;28;20222;-74
2023/05/27 14:47:54;;;;;;;2.78;2.40;;;;;;;;;;4962701;28;20226;-75
2023/05/27 14:50:23;;;;;;;3.15;2.25;;;;;;;;;;4943096;28;20222;-75
2023/05/27 14:52:49;;;;;;;2.50;2.10;;;;;;;;;;4948728;28;20230;-75
2023/05/27 14:55:19;;;;;;;3.42;2.60;;;;;;;;;;4941469;28;20247;-76
2023/05/27 14:57:45;;;;;;;4.38;2.20;;;;;;;;;;4959624;28;20259;-75
2023/05/27 15:00:13;;;;;;;3.45;2.25;;;;;;;;;;4950252;28;20218;-75
2023/05/27 15:02:43;;;;;;;3.45;2.30;;;;;;;;;;4950212;28;20725;-75